Time;durP1;ratioP1;P1;durP2;ratioP2;P2;SDS_P1;SDS_P2;PMS_P1;PMS_P2;Temp;Humidity;BMP_temperature;BMP_pressure;BME280_temperature;BME280_humidity;BME280_pressure;Samples;Min_cycle;Max_cycle;Signal;HPM_P1;HPM_P2
2023/09/01 00:01:37;;;;;;;6.20;4.83;;;15.00;99.90;;;;;;5044566;28;20228;-61
2023/09/01 00:04:07;;;;;;;8.87;5.07;;;15.00;99.90;;;;;;5048401;28;20231;-62
2023/09/01 00:06:35;;;;;;;5.70;5.20;;;15.10;99.90;;;;;;5039536;28;20229;-62
2023/09/01 00:09:04;;;;;;;6.23;4.87;;;15.10;99.90;;;;;;5040932;28;22099;-61
2023/09/01 00:11:32;;;;;;;5.87;5.10;;;15.10;99.90;;;;;;5043859;28;20244;-62
2023/09/01 00:14:01;;;;;;;9.17;4.80;;;15.10;99.90;;;;;;5043154;28;20221;-62
2023/09/01 00:16:29;;;;;;;5.07;4.60;;;15.00;99.90;;;;;;5044593;28;20330;-62
2023/09/01 00:18:57;;;;;;;5.77;5.03;;;15.10;99.90;;;;;;5043165;28;20213;-61
2023/09/01 00:21:27;;;;;;;9.97;5.43;;;15.10;99.90;;;;;;5029588;28;20234;-61
2023/09/01 00:23:56;;;;;;;6.60;4.87;;;15.10;99.90;;;;;;5041881;28;20202;-62
2023/09/01 00:26:24;;;;;;;5.37;4.97;;;15.10;99.90;;;;;;5039127;28;20569;-62
2023/09/01 00:28:52;;;;;;;8.57;5.33;;;15.00;99.90;;;;;;5026734;28;20218;-62
2023/09/01 00:31:21;;;;;;;6.10;4.60;;;15.00;99.90;;;;;;5042563;28;20546;-62
2023/09/01 00:33:49;;;;;;;5.20;4.70;;;15.00;99.90;;;;;;5042705;28;20247;-62
2023/09/01 00:36:18;;;;;;;6.43;5.10;;;15.10;99.90;;;;;;5040775;28;20221;-62
2023/09/01 00:38:48;;;;;;;5.27;4.87;;;15.00;99.90;;;;;;5042983;28;20197;-61
2023/09/01 00:41:16;;;;;;;6.67;4.77;;;15.00;99.90;;;;;;5038924;28;20222;-61
2023/09/01 00:43:45;;;;;;;15.67;4.80;;;15.10;99.90;;;;;;5043951;28;20241;-61
2023/09/01 00:46:13;;;;;;;6.30;4.83;;;15.10;99.90;;;;;;5045595;28;20219;-61
2023/09/01 00:48:42;;;;;;;5.40;4.40;;;15.10;99.90;;;;;;5044458;28;20928;-62
2023/09/01 00:51:10;;;;;;;6.80;4.60;;;15.10;99.90;;;;;;5045310;28;20207;-60
2023/09/01 00:53:39;;;;;;;6.37;4.93;;;15.20;99.90;;;;;;5039144;28;20344;-61
2023/09/01 00:56:09;;;;;;;5.30;4.90;;;15.10;99.90;;;;;;5040676;28;20223;-61
2023/09/01 00:58:38;;;;;;;7.50;5.00;;;15.20;99.90;;;;;;5043770;28;20226;-62
2023/09/01 01:01:06;;;;;;;4.63;4.23;;;15.20;99.90;;;;;;5040128;28;20689;-62
2023/09/01 01:03:34;;;;;;;5.47;4.73;;;15.10;99.90;;;;;;5033136;28;20967;-60
2023/09/01 01:06:14;;;;;;;7.07;4.60;;;15.20;99.90;;;;;;5040734;28;20242;-61
2023/09/01 01:08:55;;;;;;;6.47;4.87;;;15.20;99.90;;;;;;5043026;28;20252;-61
2023/09/01 01:11:36;;;;;;;5.13;4.50;;;15.20;99.90;;;;;;5042214;28;20221;-61
2023/09/01 01:14:12;;;;;;;4.73;4.33;;;15.20;99.90;;;;;;5038462;28;20223;-60
2023/09/01 01:16:41;;;;;;;5.77;4.23;;;15.20;99.90;;;;;;5038714;28;20230;-61
2023/09/01 01:19:23;;;;;;;7.50;4.10;;;15.20;99.90;;;;;;5041918;28;20223;-61
2023/09/01 01:21:59;;;;;;;8.17;4.73;;;15.30;99.90;;;;;;5043548;28;20243;-61
2023/09/01 01:24:29;;;;;;;4.30;4.07;;;15.30;99.90;;;;;;5043930;28;20220;-61
2023/09/01 01:26:58;;;;;;;4.60;4.30;;;15.30;99.90;;;;;;5042735;28;20183;-61
2023/09/01 01:29:26;;;;;;;4.90;4.50;;;15.30;99.90;;;;;;5044348;28;20194;-61
2023/09/01 01:31:57;;;;;;;4.43;4.13;;;15.30;99.90;;;;;;5038290;28;20297;-61
2023/09/01 01:34:34;;;;;;;4.30;3.93;;;15.40;99.90;;;;;;5042069;28;20222;-61
2023/09/01 01:37:11;;;;;;;4.60;4.20;;;15.40;99.90;;;;;;5043639;28;20229;-61
2023/09/01 01:39:42;;;;;;;5.10;4.70;;;15.40;99.90;;;;;;5043633;28;20229;-61
2023/09/01 01:42:17;;;;;;;7.50;4.60;;;15.40;99.90;;;;;;5041100;28;20195;-61
2023/09/01 01:44:48;;;;;;;12.47;5.13;;;15.40;99.90;;;;;;5043433;28;20231;-62
2023/09/01 01:47:18;;;;;;;8.17;4.70;;;15.40;99.90;;;;;;5041861;28;20225;-62
2023/09/01 01:49:46;;;;;;;6.07;4.70;;;15.50;99.90;;;;;;5043455;28;20228;-61
2023/09/01 01:52:14;;;;;;;6.03;4.77;;;15.50;99.90;;;;;;5049075;28;20227;-61
2023/09/01 01:54:44;;;;;;;5.20;4.70;;;15.50;99.90;;;;;;5047502;28;20603;-61
2023/09/01 01:57:14;;;;;;;7.83;5.40;;;15.50;99.90;;;;;;5049282;28;20244;-61
2023/09/01 01:59:43;;;;;;;5.23;4.83;;;15.50;99.90;;;;;;5046912;28;20282;-61
2023/09/01 02:02:11;;;;;;;5.50;5.00;;;15.50;99.90;;;;;;5045644;28;20733;-61
2023/09/01 02:04:39;;;;;;;5.67;5.17;;;15.50;99.90;;;;;;5053074;28;20223;-61
2023/09/01 02:07:08;;;;;;;7.13;5.30;;;15.50;99.90;;;;;;5047692;28;20224;-62
2023/09/01 02:09:36;;;;;;;9.80;5.60;;;15.50;99.90;;;;;;5047702;28;20232;-61
2023/09/01 02:12:07;;;;;;;7.70;5.90;;;15.60;99.90;;;;;;5043964;28;20206;-61
2023/09/01 02:14:35;;;;;;;5.60;5.10;;;15.60;99.90;;;;;;5046357;28;20227;-62
2023/09/01 02:17:05;;;;;;;6.60;6.00;;;15.60;99.90;;;;;;5029652;28;20216;-61
2023/09/01 02:19:33;;;;;;;7.00;6.30;;;15.70;99.90;;;;;;5046936;28;20224;-62
2023/09/01 02:22:02;;;;;;;6.60;6.07;;;15.70;99.90;;;;;;5042777;28;20291;-61
2023/09/01 02:24:31;;;;;;;7.27;6.57;;;15.70;99.90;;;;;;5047000;28;20221;-61
2023/09/01 02:26:59;;;;;;;10.10;6.80;;;15.70;99.90;;;;;;5048939;28;20228;-60
2023/09/01 02:29:29;;;;;;;8.30;7.23;;;15.70;99.90;;;;;;5044604;28;20192;-60
2023/09/01 02:31:57;;;;;;;6.90;6.20;;;15.80;99.90;;;;;;5047961;28;20226;-62
2023/09/01 02:34:26;;;;;;;8.73;6.83;;;15.80;99.90;;;;;;5049850;28;20569;-61
2023/09/01 02:36:54;;;;;;;11.17;7.33;;;15.80;99.90;;;;;;5047027;28;20597;-61
2023/09/01 02:39:23;;;;;;;7.83;7.03;;;15.90;99.90;;;;;;5027407;28;20228;-61
2023/09/01 02:41:51;;;;;;;10.33;7.90;;;15.90;99.90;;;;;;5044546;28;20202;-61
2023/09/01 02:44:20;;;;;;;9.37;7.30;;;15.90;99.90;;;;;;5045870;28;21966;-61
2023/09/01 02:46:50;;;;;;;12.33;7.40;;;15.90;99.90;;;;;;5047474;28;20690;-60
2023/09/01 02:49:18;;;;;;;11.13;8.30;;;15.90;99.90;;;;;;5046363;28;20228;-61
2023/09/01 02:51:48;;;;;;;10.83;7.97;;;16.00;99.90;;;;;;5046406;28;20247;-60
2023/09/01 02:54:17;;;;;;;8.90;7.93;;;16.00;99.90;;;;;;5047257;28;20232;-60
2023/09/01 02:56:45;;;;;;;9.80;7.50;;;16.00;99.90;;;;;;5043890;28;20213;-61
2023/09/01 02:59:13;;;;;;;9.60;7.60;;;16.00;99.90;;;;;;5045502;28;20215;-62
2023/09/01 03:01:42;;;;;;;11.30;7.90;;;16.00;99.90;;;;;;5044393;28;20227;-62
2023/09/01 03:04:11;;;;;;;8.90;7.90;;;16.00;99.90;;;;;;5047126;28;20227;-62
2023/09/01 03:06:39;;;;;;;13.97;8.40;;;16.00;99.90;;;;;;5048161;28;20217;-61
2023/09/01 03:09:10;;;;;;;12.03;8.47;;;16.00;99.90;;;;;;5043863;28;20193;-61
2023/09/01 03:11:38;;;;;;;9.60;8.17;;;16.00;99.90;;;;;;5044302;28;20268;-61
2023/09/01 03:14:06;;;;;;;11.10;8.60;;;16.10;99.90;;;;;;5041915;28;20209;-61
2023/09/01 03:16:34;;;;;;;11.07;8.10;;;16.00;99.90;;;;;;5043453;28;20231;-61
2023/09/01 03:19:03;;;;;;;11.17;8.40;;;16.00;99.90;;;;;;5045428;28;20297;-61
2023/09/01 03:21:32;;;;;;;11.70;8.83;;;16.00;99.90;;;;;;5048354;28;20228;-61
2023/09/01 03:24:02;;;;;;;12.37;8.87;;;16.00;99.90;;;;;;5046173;28;20216;-61
2023/09/01 03:26:30;;;;;;;10.93;9.50;;;16.00;99.90;;;;;;5046791;28;20214;-61
2023/09/01 03:28:58;;;;;;;16.13;9.80;;;16.10;99.90;;;;;;5043285;28;20743;-62
2023/09/01 03:31:29;;;;;;;12.90;9.23;;;16.10;99.90;;;;;;5046956;28;20227;-61
2023/09/01 03:33:59;;;;;;;12.07;9.07;;;16.10;99.90;;;;;;5041963;28;20230;-62
2023/09/01 03:36:27;;;;;;;14.30;9.67;;;16.10;99.90;;;;;;5041279;28;20303;-62
2023/09/01 03:38:59;;;;;;;15.33;10.00;;;16.10;99.90;;;;;;5049227;28;20562;-62
2023/09/01 03:41:27;;;;;;;18.87;10.07;;;16.10;99.90;;;;;;5047155;28;20737;-61
2023/09/01 03:43:56;;;;;;;16.50;10.00;;;16.10;99.90;;;;;;5045098;28;20242;-61
2023/09/01 03:46:25;;;;;;;15.33;11.03;;;16.10;99.90;;;;;;5045105;28;20225;-60
2023/09/01 03:48:53;;;;;;;15.47;9.43;;;16.00;99.90;;;;;;5045634;28;20223;-61
2023/09/01 03:51:25;;;;;;;17.40;10.57;;;16.10;99.90;;;;;;5044449;28;20260;-61
2023/09/01 03:54:02;;;;;;;16.53;10.37;;;16.10;99.90;;;;;;5044884;28;20242;-61
2023/09/01 03:56:30;;;;;;;15.67;10.67;;;16.10;99.90;;;;;;5043469;28;20215;-61
2023/09/01 03:58:59;;;;;;;15.23;10.13;;;16.10;99.90;;;;;;5028812;28;20233;-61
2023/09/01 04:01:27;;;;;;;21.67;10.33;;;16.10;99.90;;;;;;5044885;28;20630;-61
2023/09/01 04:03:55;;;;;;;13.53;9.73;;;16.10;99.90;;;;;;5047213;28;20222;-61
2023/09/01 04:06:25;;;;;;;16.17;9.83;;;16.10;99.90;;;;;;5039725;28;20231;-61
2023/09/01 04:08:53;;;;;;;16.67;10.20;;;16.10;99.90;;;;;;5043210;28;20318;-61
2023/09/01 04:11:23;;;;;;;14.07;9.33;;;16.10;99.90;;;;;;5045393;28;20216;-61
2023/09/01 04:13:51;;;;;;;14.73;9.93;;;16.10;99.90;;;;;;5022713;28;20366;-61
2023/09/01 04:16:20;;;;;;;14.17;9.23;;;16.10;99.90;;;;;;5045048;28;20221;-61
2023/09/01 04:18:48;;;;;;;16.90;9.60;;;16.10;99.90;;;;;;5043166;28;20841;-62
2023/09/01 04:21:17;;;;;;;12.13;9.23;;;16.10;99.90;;;;;;5046209;28;20232;-61
2023/09/01 04:23:45;;;;;;;12.10;9.17;;;16.10;99.90;;;;;;5046581;28;20197;-61
2023/09/01 04:26:14;;;;;;;12.97;9.47;;;16.10;99.90;;;;;;5046174;28;20226;-61
2023/09/01 04:28:44;;;;;;;19.67;10.30;;;16.20;99.90;;;;;;5045403;28;20231;-61
2023/09/01 04:31:21;;;;;;;16.77;9.77;;;16.20;99.90;;;;;;5043505;28;21883;-60
2023/09/01 04:33:50;;;;;;;17.07;9.57;;;16.20;99.90;;;;;;5045267;28;20278;-60
2023/09/01 04:36:18;;;;;;;12.43;9.13;;;16.20;99.90;;;;;;5044085;28;20236;-60
2023/09/01 04:38:49;;;;;;;17.13;10.13;;;16.20;99.90;;;;;;5041154;28;20939;-60
2023/09/01 04:41:17;;;;;;;15.90;9.63;;;16.20;99.90;;;;;;5045523;28;20220;-62
2023/09/01 04:43:47;;;;;;;14.53;10.50;;;16.20;99.90;;;;;;5043211;28;20232;-60
2023/09/01 04:46:15;;;;;;;16.50;10.20;;;16.20;99.90;;;;;;5047996;28;20219;-62
2023/09/01 04:48:44;;;;;;;17.90;10.57;;;16.30;99.90;;;;;;5050763;28;20236;-62
2023/09/01 04:51:12;;;;;;;12.97;9.67;;;16.20;99.90;;;;;;5043038;28;20193;-61
2023/09/01 04:53:41;;;;;;;12.37;9.20;;;16.30;99.90;;;;;;5046673;28;20196;-62
2023/09/01 04:56:09;;;;;;;12.33;9.30;;;16.30;99.90;;;;;;5046960;28;20221;-62
2023/09/01 04:58:37;;;;;;;14.53;10.20;;;16.30;99.90;;;;;;5045457;28;20230;-61
2023/09/01 05:01:07;;;;;;;14.27;9.53;;;16.30;99.90;;;;;;5040580;28;20228;-61
2023/09/01 05:03:37;;;;;;;16.23;9.70;;;16.30;99.90;;;;;;5046466;28;20256;-61
2023/09/01 05:06:07;;;;;;;13.73;8.53;;;16.30;99.90;;;;;;5048166;28;20282;-61
2023/09/01 05:08:35;;;;;;;16.70;9.80;;;16.40;99.90;;;;;;5044084;28;20197;-61
2023/09/01 05:11:04;;;;;;;13.23;9.67;;;16.40;99.90;;;;;;5028662;28;20221;-60
2023/09/01 05:13:33;;;;;;;15.07;9.23;;;16.40;99.90;;;;;;5037697;28;20218;-61
2023/09/01 05:16:01;;;;;;;16.17;9.67;;;16.40;99.90;;;;;;5044735;28;20563;-61
2023/09/01 05:18:31;;;;;;;13.53;9.40;;;16.40;99.90;;;;;;5048206;28;20283;-61
2023/09/01 05:20:59;;;;;;;14.63;9.47;;;16.40;99.90;;;;;;5046565;28;20192;-60
2023/09/01 05:23:31;;;;;;;14.73;9.70;;;16.40;99.90;;;;;;5047141;28;20216;-61
2023/09/01 05:26:00;;;;;;;14.57;9.07;;;16.40;99.90;;;;;;5047061;28;20219;-60
2023/09/01 05:28:28;;;;;;;19.13;9.70;;;16.50;99.90;;;;;;5031230;28;20227;-61
2023/09/01 05:30:57;;;;;;;15.40;9.63;;;16.40;99.90;;;;;;5044473;28;20238;-60
2023/09/01 05:33:26;;;;;;;18.47;9.93;;;16.40;99.90;;;;;;5050306;28;20220;-61
2023/09/01 05:35:55;;;;;;;14.03;9.17;;;16.50;99.90;;;;;;5042800;28;20193;-60
2023/09/01 05:38:23;;;;;;;16.97;9.53;;;16.50;99.90;;;;;;5044042;28;20220;-59
2023/09/01 05:41:00;;;;;;;12.07;8.67;;;16.50;99.90;;;;;;5040430;28;20217;-60
2023/09/01 05:43:28;;;;;;;12.53;8.87;;;16.50;99.90;;;;;;5046055;28;20227;-60
2023/09/01 05:45:57;;;;;;;16.07;9.57;;;16.50;99.90;;;;;;5047670;28;20303;-59
2023/09/01 05:48:25;;;;;;;15.93;9.17;;;16.60;99.90;;;;;;5046937;28;20234;-61
2023/09/01 05:50:55;;;;;;;14.20;9.00;;;16.60;99.90;;;;;;5046598;28;20200;-60
2023/09/01 05:53:24;;;;;;;17.17;9.80;;;16.60;99.90;;;;;;5043779;28;20217;-60
2023/09/01 05:55:52;;;;;;;15.53;9.70;;;16.60;99.90;;;;;;5044454;28;20221;-61
2023/09/01 05:58:20;;;;;;;16.17;10.53;;;16.60;99.90;;;;;;5044340;28;20213;-61
2023/09/01 06:00:49;;;;;;;18.63;10.00;;;16.60;99.90;;;;;;5050439;28;20322;-61
2023/09/01 06:03:17;;;;;;;22.13;10.47;;;16.60;99.90;;;;;;5051007;28;20251;-61
2023/09/01 06:05:46;;;;;;;19.63;10.33;;;16.70;99.90;;;;;;5043164;28;20227;-61
2023/09/01 06:08:15;;;;;;;16.80;9.47;;;16.70;99.90;;;;;;5037565;28;20222;-61
2023/09/01 06:10:44;;;;;;;15.50;8.77;;;16.70;99.90;;;;;;5043095;28;21039;-60
2023/09/01 06:13:12;;;;;;;16.87;9.30;;;16.70;99.90;;;;;;5040930;28;20239;-60
2023/09/01 06:15:41;;;;;;;15.80;8.97;;;16.70;99.90;;;;;;5043724;28;20228;-60
2023/09/01 06:18:09;;;;;;;13.67;8.60;;;16.70;99.90;;;;;;5047424;28;20197;-61
2023/09/01 06:20:37;;;;;;;14.90;8.47;;;16.70;99.90;;;;;;5042171;28;20217;-60
2023/09/01 06:23:06;;;;;;;14.63;8.57;;;16.70;99.90;;;;;;5042920;28;20231;-61
2023/09/01 06:25:38;;;;;;;16.03;8.83;;;16.70;99.90;;;;;;5041156;28;20275;-61
2023/09/01 06:28:07;;;;;;;11.83;6.87;;;16.70;99.90;;;;;;5036495;28;20587;-61
2023/09/01 06:30:37;;;;;;;14.23;7.57;;;16.80;99.90;;;;;;5041625;28;20225;-62
2023/09/01 06:33:07;;;;;;;10.73;6.53;;;16.80;99.90;;;;;;5045687;28;20200;-61
2023/09/01 06:35:36;;;;;;;8.70;6.70;;;16.80;99.90;;;;;;5044633;28;20770;-61
2023/09/01 06:38:06;;;;;;;11.63;7.20;;;16.80;99.90;;;;;;5047902;28;21493;-61
2023/09/01 06:40:36;;;;;;;13.13;6.90;;;16.80;99.90;;;;;;5042613;28;20221;-61
2023/09/01 06:43:05;;;;;;;7.63;6.10;;;16.80;99.90;;;;;;5054465;28;20334;-61
2023/09/01 06:45:33;;;;;;;9.23;6.00;;;16.80;99.90;;;;;;5047501;28;20307;-61
2023/09/01 06:48:02;;;;;;;9.70;6.57;;;16.80;99.90;;;;;;5049049;28;20221;-62
2023/09/01 06:50:31;;;;;;;11.47;6.13;;;16.80;99.90;;;;;;5043836;28;20269;-61
2023/09/01 06:52:59;;;;;;;8.80;5.77;;;16.80;99.90;;;;;;5045776;28;21038;-62
2023/09/01 06:55:27;;;;;;;9.70;6.47;;;16.80;99.90;;;;;;5050605;28;20227;-61
2023/09/01 06:57:57;;;;;;;9.13;6.53;;;16.80;99.90;;;;;;5049464;28;20224;-61
2023/09/01 07:00:25;;;;;;;10.57;5.80;;;16.80;99.90;;;;;;5047245;28;20228;-61
2023/09/01 07:02:53;;;;;;;56.63;7.10;;;16.80;99.90;;;;;;5053957;28;20184;-61
2023/09/01 07:05:22;;;;;;;9.10;6.23;;;16.80;99.90;;;;;;5060547;28;20236;-61
2023/09/01 07:07:52;;;;;;;7.83;5.90;;;16.90;99.90;;;;;;5049968;28;20328;-62
2023/09/01 07:10:20;;;;;;;8.13;6.30;;;16.90;99.90;;;;;;5045964;28;20227;-62
2023/09/01 07:12:48;;;;;;;10.03;6.30;;;16.90;99.90;;;;;;5050972;28;20217;-62
2023/09/01 07:15:18;;;;;;;9.70;6.40;;;16.90;99.90;;;;;;5045962;28;20765;-62
2023/09/01 07:17:46;;;;;;;14.43;6.00;;;16.90;99.90;;;;;;5052392;28;20228;-62
2023/09/01 07:20:15;;;;;;;5.50;5.00;;;16.90;99.90;;;;;;5041821;28;20316;-62
2023/09/01 07:22:43;;;;;;;5.80;4.93;;;16.90;99.90;;;;;;5040470;28;20303;-62
2023/09/01 07:25:13;;;;;;;7.47;4.63;;;16.90;99.90;;;;;;5045725;28;20217;-62
2023/09/01 07:27:42;;;;;;;5.17;4.40;;;16.90;99.90;;;;;;5048533;28;20214;-63
2023/09/01 07:30:13;;;;;;;4.20;3.90;;;17.00;99.90;;;;;;5045499;28;20184;-63
2023/09/01 07:32:43;;;;;;;5.53;4.60;;;17.00;99.90;;;;;;5048178;28;20204;-63
2023/09/01 07:35:12;;;;;;;6.43;4.87;;;17.00;99.90;;;;;;5049318;28;20622;-63
2023/09/01 07:37:40;;;;;;;15.93;5.07;;;17.00;99.90;;;;;;5053768;28;20220;-62
2023/09/01 07:40:09;;;;;;;19.80;4.90;;;17.00;99.90;;;;;;5049682;28;20732;-62
2023/09/01 07:42:37;;;;;;;8.80;5.27;;;17.00;99.90;;;;;;5048638;28;20229;-61
2023/09/01 07:45:06;;;;;;;5.00;3.80;;;17.00;99.90;;;;;;5044733;28;21918;-62
2023/09/01 07:47:35;;;;;;;3.97;3.57;;;17.00;99.90;;;;;;5035292;28;20215;-62
2023/09/01 07:50:05;;;;;;;5.47;3.93;;;17.00;99.90;;;;;;5051488;28;20216;-62
2023/09/01 07:52:34;;;;;;;13.67;3.60;;;17.00;99.90;;;;;;5048312;28;20224;-62
2023/09/01 07:55:03;;;;;;;2.60;2.40;;;16.90;99.90;;;;;;5043675;28;20213;-62
2023/09/01 07:57:33;;;;;;;5.43;1.87;;;16.90;99.90;;;;;;5049577;28;20236;-61
2023/09/01 08:00:05;;;;;;;1.77;1.70;;;16.90;99.90;;;;;;5050927;28;20215;-62
2023/09/01 08:02:33;;;;;;;3.20;1.90;;;16.90;99.90;;;;;;5045204;28;20215;-62
2023/09/01 08:05:05;;;;;;;2.83;1.77;;;16.80;99.90;;;;;;5053833;28;20565;-62
2023/09/01 08:07:33;;;;;;;2.10;1.90;;;16.80;99.90;;;;;;5046151;28;20228;-62
2023/09/01 08:10:03;;;;;;;2.57;1.83;;;16.80;99.90;;;;;;5046629;28;20221;-62
2023/09/01 08:12:31;;;;;;;1.57;1.47;;;16.80;99.90;;;;;;5050809;28;20709;-62
2023/09/01 08:15:00;;;;;;;10.20;2.00;;;16.80;99.90;;;;;;5046495;28;20193;-62
2023/09/01 08:17:28;;;;;;;23.03;4.03;;;16.80;99.90;;;;;;5049279;28;20198;-62
2023/09/01 08:19:56;;;;;;;2.53;1.40;;;16.80;99.90;;;;;;5040595;28;20297;-62
2023/09/01 08:22:26;;;;;;;1.60;1.50;;;16.80;99.90;;;;;;5045002;28;20307;-62
2023/09/01 08:24:54;;;;;;;23.27;1.93;;;16.80;99.90;;;;;;5040810;28;20224;-62
2023/09/01 08:27:23;;;;;;;3.03;1.77;;;16.80;99.90;;;;;;5045110;28;20306;-62
2023/09/01 08:29:52;;;;;;;2.70;1.50;;;16.90;99.90;;;;;;5043643;28;20192;-62
2023/09/01 08:32:21;;;;;;;2.30;1.40;;;16.90;99.90;;;;;;5043641;28;20217;-62
2023/09/01 08:34:49;;;;;;;7.20;1.60;;;16.90;99.90;;;;;;5042136;28;20703;-63
2023/09/01 08:37:19;;;;;;;8.37;1.70;;;17.00;99.90;;;;;;5052576;28;20224;-63
2023/09/01 08:39:49;;;;;;;1.40;1.40;;;17.00;99.90;;;;;;5048701;28;20228;-62
2023/09/01 08:42:19;;;;;;;3.43;1.30;;;17.00;99.90;;;;;;5048033;28;20315;-62
2023/09/01 08:44:48;;;;;;;63.40;3.17;;;17.10;99.90;;;;;;5052222;28;20727;-62
2023/09/01 08:47:20;;;;;;;6.37;1.80;;;17.10;99.90;;;;;;5047052;28;20232;-63
2023/09/01 08:49:50;;;;;;;1.53;1.50;;;17.20;99.90;;;;;;5047952;28;20407;-62
2023/09/01 08:52:19;;;;;;;1.80;1.70;;;17.10;99.90;;;;;;5047247;28;20229;-62
2023/09/01 08:54:49;;;;;;;1.20;1.20;;;17.20;99.90;;;;;;5045740;28;20228;-61
2023/09/01 08:57:17;;;;;;;1.40;1.30;;;17.30;99.90;;;;;;5050641;28;20255;-62
2023/09/01 08:59:46;;;;;;;1.10;1.00;;;17.30;99.90;;;;;;5050973;28;20217;-62
2023/09/01 09:02:14;;;;;;;2.73;0.77;;;17.30;99.90;;;;;;5049984;28;20350;-62
2023/09/01 09:04:43;;;;;;;0.80;0.80;;;17.40;99.90;;;;;;5045887;28;20300;-61
2023/09/01 09:07:16;;;;;;;1.00;0.90;;;17.40;99.90;;;;;;5036892;28;20717;-61
2023/09/01 09:09:53;;;;;;;0.73;0.73;;;17.40;99.90;;;;;;5045617;28;20672;-62
2023/09/01 09:12:22;;;;;;;1.07;1.07;;;17.50;99.90;;;;;;5054864;28;20674;-62
2023/09/01 09:14:52;;;;;;;1.00;1.00;;;17.40;99.90;;;;;;5049793;28;20208;-62
2023/09/01 09:17:40;;;;;;;1.00;1.00;;;17.50;99.90;;;;;;5042191;28;20278;-61
2023/09/01 09:20:10;;;;;;;0.77;0.77;;;17.60;99.90;;;;;;5046667;28;20258;-61
2023/09/01 09:22:51;;;;;;;0.70;0.70;;;17.70;99.90;;;;;;5041676;28;20258;-62
2023/09/01 09:25:28;;;;;;;0.70;0.70;;;17.80;99.90;;;;;;5047007;28;20228;-62
2023/09/01 09:27:58;;;;;;;0.80;0.80;;;17.80;99.90;;;;;;5039936;28;20307;-62
2023/09/01 09:30:27;;;;;;;3.13;0.80;;;17.80;99.90;;;;;;5053024;28;20235;-61
2023/09/01 09:33:03;;;;;;;0.87;0.70;;;17.90;99.90;;;;;;5050614;28;20211;-63
2023/09/01 09:35:33;;;;;;;0.73;0.70;;;17.90;99.90;;;;;;5049538;28;20262;-61
2023/09/01 09:38:02;;;;;;;0.80;0.80;;;18.00;99.90;;;;;;5045879;28;20213;-62
2023/09/01 09:40:32;;;;;;;0.83;0.83;;;18.10;99.90;;;;;;5053457;28;20309;-63
2023/09/01 09:43:00;;;;;;;0.70;0.70;;;18.20;99.90;;;;;;5046338;28;20248;-62
2023/09/01 09:45:32;;;;;;;0.80;0.80;;;18.30;99.90;;;;;;5046930;28;20220;-63
2023/09/01 09:48:02;;;;;;;0.90;0.90;;;18.40;99.90;;;;;;5042577;28;20192;-62
2023/09/01 09:50:32;;;;;;;1.00;1.00;;;18.50;99.90;;;;;;5044745;28;20199;-62
2023/09/01 09:53:04;;;;;;;1.03;1.03;;;18.50;99.90;;;;;;5047123;28;20232;-62
2023/09/01 09:55:39;;;;;;;1.07;1.07;;;18.60;99.90;;;;;;5049653;28;20220;-62
2023/09/01 09:58:08;;;;;;;1.03;1.03;;;18.70;99.90;;;;;;5046806;28;20243;-62
2023/09/01 10:00:40;;;;;;;0.70;0.70;;;18.90;99.90;;;;;;5046903;28;20231;-63
2023/09/01 10:03:09;;;;;;;1.50;0.50;;;19.20;99.90;;;;;;5047654;28;20277;-63
2023/09/01 10:05:39;;;;;;;0.70;0.70;;;19.10;99.90;;;;;;5043942;28;20239;-62
2023/09/01 10:08:11;;;;;;;0.70;0.70;;;19.30;99.90;;;;;;5046561;28;20233;-62
2023/09/01 10:10:42;;;;;;;0.57;0.57;;;19.70;99.90;;;;;;5047046;28;20240;-61
2023/09/01 10:13:13;;;;;;;0.43;0.43;;;20.00;99.90;;;;;;5049836;28;20302;-61
2023/09/01 10:15:42;;;;;;;0.43;0.43;;;19.90;99.90;;;;;;5044642;28;20229;-61
2023/09/01 10:18:11;;;;;;;0.53;0.53;;;19.80;99.90;;;;;;5050029;28;20288;-61
2023/09/01 10:20:41;;;;;;;0.87;0.87;;;19.90;99.90;;;;;;5046345;28;21192;-61
2023/09/01 10:23:11;;;;;;;0.60;0.60;;;19.90;99.90;;;;;;5042385;28;20573;-61
2023/09/01 10:25:41;;;;;;;1.00;0.87;;;19.80;99.90;;;;;;5045765;28;20225;-61
2023/09/01 10:28:11;;;;;;;0.90;0.90;;;19.80;99.90;;;;;;5053410;28;20225;-63
2023/09/01 10:30:41;;;;;;;0.80;0.80;;;19.80;99.90;;;;;;5042263;28;20242;-62
2023/09/01 10:33:11;;;;;;;0.90;0.90;;;19.70;99.90;;;;;;5045060;28;20216;-62
2023/09/01 10:35:42;;;;;;;1.13;1.07;;;19.70;99.90;;;;;;5054569;28;20209;-62
2023/09/01 10:38:12;;;;;;;1.20;1.10;;;19.60;99.90;;;;;;5052356;28;20226;-62
2023/09/01 10:40:45;;;;;;;0.90;0.90;;;19.60;99.90;;;;;;5053216;28;20580;-62
2023/09/01 10:43:13;;;;;;;1.17;1.17;;;19.50;99.90;;;;;;5053001;28;20233;-62
2023/09/01 10:45:41;;;;;;;1.90;1.20;;;19.40;99.90;;;;;;5045813;28;20221;-62
2023/09/01 10:48:12;;;;;;;0.97;0.97;;;19.50;99.90;;;;;;5054090;28;20619;-62
2023/09/01 10:50:42;;;;;;;1.30;1.30;;;19.70;99.90;;;;;;5045528;28;20251;-61
2023/09/01 10:53:33;;;;;;;1.57;1.50;;;19.70;99.90;;;;;;5053770;28;20222;-63
2023/09/01 10:56:10;;;;;;;1.40;1.40;;;19.80;99.90;;;;;;5047851;28;20217;-62
2023/09/01 10:58:40;;;;;;;1.50;1.50;;;19.90;99.90;;;;;;5040118;28;20693;-62
2023/09/01 11:01:35;;;;;;;1.60;1.60;;;19.90;99.90;;;;;;5050820;28;20245;-62
2023/09/01 11:04:32;;;;;;;1.30;1.30;;;20.00;99.90;;;;;;5050204;28;20228;-62
2023/09/01 11:07:06;;;;;;;1.57;1.50;;;19.90;99.90;;;;;;5049703;28;20235;-62
2023/09/01 11:09:52;;;;;;;1.50;1.50;;;20.00;99.90;;;;;;5051600;28;20224;-62
2023/09/01 11:12:31;;;;;;;1.63;1.57;;;20.00;99.90;;;;;;5047954;28;20319;-61
2023/09/01 11:15:05;;;;;;;1.67;1.57;;;20.20;99.90;;;;;;5050962;28;20199;-61
2023/09/01 11:17:38;;;;;;;1.50;1.50;;;20.20;99.90;;;;;;5049998;28;20732;-61
2023/09/01 11:20:09;;;;;;;1.70;1.60;;;20.50;99.90;;;;;;5051346;28;20222;-62
2023/09/01 11:22:42;;;;;;;2.17;1.50;;;20.80;99.90;;;;;;5048525;28;20727;-62
2023/09/01 11:25:14;;;;;;;1.33;1.33;;;21.00;99.90;;;;;;5052517;28;20613;-61
2023/09/01 11:27:50;;;;;;;1.40;1.40;;;21.10;99.90;;;;;;5043535;28;20231;-61
2023/09/01 11:30:19;;;;;;;1.37;1.37;;;21.00;99.90;;;;;;5050450;28;20240;-61
2023/09/01 11:32:48;;;;;;;1.60;1.50;;;21.00;99.90;;;;;;5052848;28;20188;-62
2023/09/01 11:35:28;;;;;;;2.10;1.50;;;21.10;99.90;;;;;;5044552;28;20231;-61
2023/09/01 11:37:58;;;;;;;1.13;1.13;;;21.60;99.90;;;;;;5057442;28;20227;-61
2023/09/01 11:40:29;;;;;;;1.10;1.10;;;22.20;99.90;;;;;;5053543;28;20213;-61
2023/09/01 11:42:59;;;;;;;1.20;1.20;;;22.90;99.90;;;;;;5045733;28;20227;-60
2023/09/01 11:45:27;;;;;;;0.90;0.90;;;23.60;99.90;;;;;;5048769;28;20225;-60
2023/09/01 11:47:56;;;;;;;1.10;1.10;;;24.00;99.90;;;;;;5053139;28;20667;-60
2023/09/01 11:50:24;;;;;;;1.70;1.00;;;24.10;99.90;;;;;;5049479;28;20675;-60
2023/09/01 11:52:57;;;;;;;1.10;1.10;;;23.90;99.90;;;;;;5040589;28;20245;-61
2023/09/01 11:55:30;;;;;;;1.07;1.07;;;23.60;99.90;;;;;;5047881;28;20212;-60
2023/09/01 11:58:00;;;;;;;1.17;1.17;;;23.40;99.90;;;;;;5034376;28;20213;-61
2023/09/01 12:00:31;;;;;;;1.10;1.10;;;23.20;99.90;;;;;;5053040;28;20220;-61
2023/09/01 12:03:03;;;;;;;1.20;1.20;;;23.00;99.90;;;;;;5050727;28;20236;-61
2023/09/01 12:05:33;;;;;;;1.10;1.10;;;22.90;99.90;;;;;;5053465;28;20259;-60
2023/09/01 12:08:03;;;;;;;1.20;1.20;;;22.60;99.90;;;;;;5047268;28;20224;-61
2023/09/01 12:10:32;;;;;;;1.47;1.37;;;22.60;99.90;;;;;;5055869;28;20227;-60
2023/09/01 12:13:08;;;;;;;1.50;1.10;;;22.60;99.90;;;;;;5052785;28;20217;-60
2023/09/01 12:15:54;;;;;;;1.23;1.23;;;22.60;99.90;;;;;;5052382;28;20228;-60
2023/09/01 12:18:34;;;;;;;1.30;1.20;;;22.60;99.90;;;;;;5044835;28;20279;-61
2023/09/01 12:21:05;;;;;;;1.40;1.30;;;22.60;99.90;;;;;;5040705;28;20614;-60
2023/09/01 12:23:34;;;;;;;1.20;1.20;;;22.70;99.90;;;;;;5052025;28;20209;-60
2023/09/01 12:26:03;;;;;;;2.10;1.37;;;22.80;99.90;;;;;;5052228;28;20244;-60
2023/09/01 12:28:35;;;;;;;1.90;1.43;;;22.90;99.90;;;;;;5050826;28;20339;-60
2023/09/01 12:31:05;;;;;;;1.20;1.20;;;23.00;99.90;;;;;;5049488;28;20269;-62
2023/09/01 12:33:34;;;;;;;1.30;1.30;;;23.10;99.90;;;;;;5042788;28;20585;-61
2023/09/01 12:36:04;;;;;;;1.23;1.23;;;23.20;99.90;;;;;;5043117;28;20189;-60
2023/09/01 12:38:35;;;;;;;1.20;1.20;;;23.10;99.90;;;;;;5051700;28;20547;-60
2023/09/01 12:41:03;;;;;;;1.20;1.20;;;23.10;99.90;;;;;;5043725;28;20223;-60
2023/09/01 12:43:34;;;;;;;1.40;1.40;;;23.00;99.90;;;;;;5052798;28;20220;-60
2023/09/01 12:46:22;;;;;;;1.40;1.40;;;22.90;99.90;;;;;;5045966;28;20263;-60
2023/09/01 12:48:50;;;;;;;1.40;1.40;;;22.90;99.90;;;;;;5048207;28;20241;-61
2023/09/01 12:51:19;;;;;;;1.40;1.30;;;22.90;99.90;;;;;;5049477;28;20678;-60
2023/09/01 12:53:47;;;;;;;1.37;1.37;;;23.00;99.90;;;;;;5041921;28;20377;-60
2023/09/01 12:56:17;;;;;;;1.60;1.50;;;23.10;99.90;;;;;;5045349;28;20212;-60
2023/09/01 12:58:46;;;;;;;2.07;1.43;;;23.20;99.90;;;;;;5041515;28;20252;-61